Time,TemperatureF,DewpointF,PressureIn,WindDirection,WindDirectionDegrees,WindSpeedMPH,WindSpeedGustMPH,Humidity,HourlyPrecipIn,Conditions,Clouds,dailyrainin,SolarRadiationWatts/m^2,SoftwareType,DateUTC
2013-07-25 00:02:00,77.0,76.0,-100.00,NNE,26,2.0,6.0,97,0.00,,,0.14,0.000000,,2013-07-25 05:02:00,
2013-07-25 00:22:00,76.0,75.0,-100.00,North,359,0.0,0.0,96,0.00,,,0.14,0.000000,,2013-07-25 05:22:00,
2013-07-25 00:32:00,76.0,75.0,-100.00,North,359,0.0,0.0,96,0.00,,,0.14,0.000000,,2013-07-25 05:32:00,
2013-07-25 00:43:00,76.0,75.0,-100.00,North,359,0.0,0.0,96,0.00,,,0.14,0.000000,,2013-07-25 05:43:00,
2013-07-25 00:52:00,76.0,75.0,-100.00,North,359,0.0,0.0,96,0.00,,,0.14,0.000000,,2013-07-25 05:52:00,
2013-07-25 01:02:00,76.0,75.0,-100.00,North,359,0.0,0.0,96,0.00,,,0.14,0.000000,,2013-07-25 06:02:00,
2013-07-25 01:22:00,76.0,75.0,-100.00,SSW,200,0.0,0.0,97,0.00,,,0.14,0.000000,,2013-07-25 06:22:00,
2013-07-25 01:32:00,76.0,75.0,-100.00,SSW,200,0.0,0.0,97,0.00,,,0.14,0.000000,,2013-07-25 06:32:00,
2013-07-25 01:42:00,76.0,75.0,-100.00,SSW,200,0.0,0.0,97,0.00,,,0.14,0.000000,,2013-07-25 06:42:00,
2013-07-25 01:52:00,76.0,75.0,-100.00,SSW,200,0.0,0.0,97,0.00,,,0.14,0.000000,,2013-07-25 06:52:00,
2013-07-25 02:02:00,76.0,75.0,-100.00,SSW,200,0.0,0.0,97,0.00,,,0.14,0.000000,,2013-07-25 07:02:00,
2013-07-25 02:22:00,75.0,74.0,-100.00,NE,47,0.0,0.0,98,0.00,,,0.14,0.000000,,2013-07-25 07:22:00,
2013-07-25 02:33:00,75.0,74.0,-100.00,NE,47,0.0,0.0,98,0.00,,,0.14,0.000000,,2013-07-25 07:33:00,
2013-07-25 02:43:00,75.0,74.0,-100.00,NE,47,0.0,0.0,98,0.00,,,0.14,0.000000,,2013-07-25 07:43:00,
2013-07-25 02:53:00,75.0,74.0,-100.00,NE,47,0.0,0.0,98,0.00,,,0.14,0.000000,,2013-07-25 07:53:00,
2013-07-25 03:02:00,75.0,74.0,-100.00,NE,47,0.0,0.0,98,0.00,,,0.14,0.000000,,2013-07-25 08:02:00,
2013-07-25 03:22:00,75.0,74.0,-100.00,NNW,341,0.0,0.0,98,0.00,,,0.14,0.000000,,2013-07-25 08:22:00,
2013-07-25 03:32:00,75.0,74.0,-100.00,NNW,341,0.0,0.0,98,0.00,,,0.14,0.000000,,2013-07-25 08:32:00,
2013-07-25 03:44:00,75.0,74.0,-100.00,NNW,341,0.0,0.0,98,0.00,,,0.14,0.000000,,2013-07-25 08:44:00,
2013-07-25 03:52:00,75.0,74.0,-100.00,NNW,341,0.0,0.0,98,0.00,,,0.14,0.000000,,2013-07-25 08:52:00,
2013-07-25 04:02:00,75.0,74.0,-100.00,NNW,341,0.0,0.0,98,0.00,,,0.14,0.000000,,2013-07-25 09:02:00,
2013-07-25 04:22:00,74.0,73.0,-100.00,NE,39,0.0,0.0,97,0.00,,,0.14,0.000000,,2013-07-25 09:22:00,
2013-07-25 04:33:00,74.0,73.0,-100.00,NE,39,0.0,0.0,97,0.00,,,0.14,0.000000,,2013-07-25 09:33:00,
2013-07-25 04:43:00,74.0,73.0,-100.00,NE,39,0.0,0.0,97,0.00,,,0.14,0.000000,,2013-07-25 09:43:00,
2013-07-25 04:53:00,74.0,73.0,-100.00,NE,39,0.0,0.0,97,0.00,,,0.14,0.000000,,2013-07-25 09:53:00,
2013-07-25 05:02:00,74.0,73.0,-100.00,NE,39,0.0,0.0,97,0.00,,,0.14,0.000000,,2013-07-25 10:02:00,
2013-07-25 05:22:00,74.0,73.0,-100.00,WNW,297,0.0,0.0,98,0.00,,,0.14,0.000000,,2013-07-25 10:22:00,
2013-07-25 05:32:00,74.0,73.0,-100.00,WNW,297,0.0,0.0,98,0.00,,,0.14,0.000000,,2013-07-25 10:32:00,
2013-07-25 05:43:00,74.0,73.0,-100.00,WNW,297,0.0,0.0,98,0.00,,,0.14,0.000000,,2013-07-25 10:43:00,
2013-07-25 05:53:00,74.0,73.0,-100.00,WNW,297,0.0,0.0,98,0.00,,,0.14,0.000000,,2013-07-25 10:53:00,
2013-07-25 06:02:00,74.0,73.0,-100.00,WNW,297,0.0,0.0,98,0.00,,,0.14,0.000000,,2013-07-25 11:02:00,
2013-07-25 06:22:00,73.0,72.0,-100.00,NNE,15,0.0,0.0,98,0.00,,,0.14,0.000000,,2013-07-25 11:22:00,
2013-07-25 06:32:00,73.0,72.0,-100.00,NNE,15,0.0,0.0,98,0.00,,,0.14,0.000000,,2013-07-25 11:32:00,
2013-07-25 06:43:00,73.0,72.0,-100.00,NNE,15,0.0,0.0,98,0.00,,,0.14,0.000000,,2013-07-25 11:43:00,
2013-07-25 06:52:00,73.0,72.0,-100.00,NNE,15,0.0,0.0,98,0.00,,,0.14,0.000000,,2013-07-25 11:52:00,
2013-07-25 07:02:00,73.0,72.0,-100.00,NNE,15,0.0,0.0,98,0.00,,,0.14,0.000000,,2013-07-25 12:02:00,
2013-07-25 07:23:00,73.0,72.0,-100.00,SW,228,0.0,0.0,98,0.00,,,0.14,7.000000,,2013-07-25 12:23:00,
2013-07-25 07:32:00,73.0,72.0,-100.00,SW,228,0.0,0.0,98,0.00,,,0.14,7.000000,,2013-07-25 12:32:00,
2013-07-25 07:45:00,73.0,72.0,-100.00,SW,228,0.0,0.0,98,0.00,,,0.14,7.000000,,2013-07-25 12:45:00,
2013-07-25 07:53:00,73.0,72.0,-100.00,SW,228,0.0,0.0,98,0.00,,,0.14,7.000000,,2013-07-25 12:53:00,
2013-07-25 08:02:00,73.0,72.0,-100.00,SW,228,0.0,0.0,98,0.00,,,0.14,7.000000,,2013-07-25 13:02:00,
2013-07-25 08:22:00,77.0,76.0,-100.00,ENE,64,0.0,0.0,98,0.00,,,0.14,104.000000,,2013-07-25 13:22:00,
2013-07-25 08:33:00,77.0,76.0,-100.00,ENE,64,0.0,0.0,98,0.00,,,0.14,104.000000,,2013-07-25 13:33:00,
2013-07-25 08:43:00,77.0,76.0,-100.00,ENE,64,0.0,0.0,98,0.00,,,0.14,104.000000,,2013-07-25 13:43:00,
2013-07-25 08:53:00,77.0,76.0,-100.00,ENE,64,0.0,0.0,98,0.00,,,0.14,104.000000,,2013-07-25 13:53:00,
2013-07-25 09:02:00,77.0,76.0,-100.00,ENE,64,0.0,0.0,98,0.00,,,0.14,104.000000,,2013-07-25 14:02:00,
2013-07-25 09:22:00,82.0,76.0,-100.00,West,273,0.0,0.0,81,0.00,,,0.14,325.000000,,2013-07-25 14:22:00,
2013-07-25 09:33:00,82.0,76.0,-100.00,West,273,0.0,0.0,81,0.00,,,0.14,325.000000,,2013-07-25 14:33:00,
2013-07-25 09:43:00,82.0,76.0,-100.00,West,273,0.0,0.0,81,0.00,,,0.14,325.000000,,2013-07-25 14:43:00,
2013-07-25 09:53:00,82.0,76.0,-100.00,West,273,0.0,0.0,81,0.00,,,0.14,325.000000,,2013-07-25 14:53:00,
2013-07-25 10:02:00,82.0,76.0,-100.00,West,273,0.0,0.0,81,0.00,,,0.14,325.000000,,2013-07-25 15:02:00,
2013-07-25 10:32:00,84.0,76.0,-100.00,WNW,301,5.0,9.0,77,0.00,,,0.14,549.000000,,2013-07-25 15:32:00,
2013-07-25 10:44:00,84.0,76.0,-100.00,WNW,301,5.0,9.0,77,0.00,,,0.14,549.000000,,2013-07-25 15:44:00,
2013-07-25 10:53:00,84.0,76.0,-100.00,WNW,301,5.0,9.0,77,0.00,,,0.14,549.000000,,2013-07-25 15:53:00,
2013-07-25 11:02:00,84.0,76.0,-100.00,WNW,301,5.0,9.0,77,0.00,,,0.14,549.000000,,2013-07-25 16:02:00,
2013-07-25 11:03:00,87.0,77.0,-100.00,ESE,114,4.0,8.0,73,0.00,,,0.14,703.000000,,2013-07-25 16:03:00,
2013-07-25 11:23:00,87.0,77.0,-100.00,ESE,114,4.0,8.0,73,0.00,,,0.14,703.000000,,2013-07-25 16:23:00,
2013-07-25 11:33:00,87.0,77.0,-100.00,ESE,114,4.0,8.0,73,0.00,,,0.14,703.000000,,2013-07-25 16:33:00,
2013-07-25 11:45:00,87.0,77.0,-100.00,ESE,114,4.0,8.0,73,0.00,,,0.14,703.000000,,2013-07-25 16:45:00,
2013-07-25 11:53:00,87.0,77.0,-100.00,ESE,114,4.0,8.0,73,0.00,,,0.14,703.000000,,2013-07-25 16:53:00,
2013-07-25 12:22:00,89.0,77.0,-100.00,East,97,3.0,7.0,68,0.00,,,0.14,824.000000,,2013-07-25 17:22:00,
2013-07-25 12:32:00,89.0,77.0,-100.00,East,97,3.0,7.0,68,0.00,,,0.14,824.000000,,2013-07-25 17:32:00,
2013-07-25 12:43:00,89.0,77.0,-100.00,East,97,3.0,7.0,68,0.00,,,0.14,824.000000,,2013-07-25 17:43:00,
2013-07-25 12:53:00,89.0,77.0,-100.00,East,97,3.0,7.0,68,0.00,,,0.14,824.000000,,2013-07-25 17:53:00,
2013-07-25 13:02:00,89.0,77.0,-100.00,East,97,3.0,7.0,68,0.00,,,0.14,824.000000,,2013-07-25 18:02:00,
2013-07-25 13:22:00,91.0,77.0,-100.00,NE,36,4.0,8.0,64,0.00,,,0.14,984.000000,,2013-07-25 18:22:00,
2013-07-25 13:33:00,91.0,77.0,-100.00,NE,36,4.0,8.0,64,0.00,,,0.14,984.000000,,2013-07-25 18:33:00,
2013-07-25 13:43:00,91.0,77.0,-100.00,NE,36,4.0,8.0,64,0.00,,,0.14,984.000000,,2013-07-25 18:43:00,
2013-07-25 13:52:00,91.0,77.0,-100.00,NE,36,4.0,8.0,64,0.00,,,0.14,984.000000,,2013-07-25 18:52:00,
2013-07-25 14:02:00,91.0,77.0,-100.00,NE,36,4.0,8.0,64,0.00,,,0.14,984.000000,,2013-07-25 19:02:00,
2013-07-25 14:23:00,91.0,73.0,-100.00,NW,313,4.0,7.0,56,0.00,,,0.14,911.000000,,2013-07-25 19:23:00,
2013-07-25 14:33:00,91.0,73.0,-100.00,NW,313,4.0,7.0,56,0.00,,,0.14,911.000000,,2013-07-25 19:33:00,
2013-07-25 14:43:00,91.0,73.0,-100.00,NW,313,4.0,7.0,56,0.00,,,0.14,911.000000,,2013-07-25 19:43:00,
2013-07-25 14:53:00,91.0,73.0,-100.00,NW,313,4.0,7.0,56,0.00,,,0.14,911.000000,,2013-07-25 19:53:00,
2013-07-25 15:02:00,91.0,73.0,-100.00,NW,313,4.0,7.0,56,0.00,,,0.14,911.000000,,2013-07-25 20:02:00,
2013-07-25 15:03:00,95.0,73.0,-100.00,ENE,74,4.0,8.0,49,0.00,,,0.14,976.000000,,2013-07-25 20:03:00,
2013-07-25 15:22:00,95.0,73.0,-100.00,ENE,74,4.0,8.0,49,0.00,,,0.14,976.000000,,2013-07-25 20:22:00,
2013-07-25 15:32:00,95.0,73.0,-100.00,ENE,74,4.0,8.0,49,0.00,,,0.14,976.000000,,2013-07-25 20:32:00,
2013-07-25 15:43:00,95.0,73.0,-100.00,ENE,74,4.0,8.0,49,0.00,,,0.14,976.000000,,2013-07-25 20:43:00,
2013-07-25 15:54:00,95.0,73.0,-100.00,ENE,74,4.0,8.0,49,0.00,,,0.14,976.000000,,2013-07-25 20:54:00,
2013-07-25 16:22:00,96.0,72.0,-100.00,NE,38,3.0,8.0,46,0.00,,,0.14,761.000000,,2013-07-25 21:22:00,
2013-07-25 16:33:00,96.0,72.0,-100.00,NE,38,3.0,8.0,46,0.00,,,0.14,761.000000,,2013-07-25 21:33:00,
2013-07-25 16:44:00,96.0,72.0,-100.00,NE,38,3.0,8.0,46,0.00,,,0.14,761.000000,,2013-07-25 21:44:00,
2013-07-25 16:52:00,96.0,72.0,-100.00,NE,38,3.0,8.0,46,0.00,,,0.14,761.000000,,2013-07-25 21:52:00,
2013-07-25 17:02:00,96.0,72.0,-100.00,NE,38,3.0,8.0,46,0.00,,,0.14,761.000000,,2013-07-25 22:02:00,
2013-07-25 17:22:00,96.0,69.0,-100.00,North,2,5.0,9.0,42,0.00,,,0.14,515.000000,,2013-07-25 22:22:00,
2013-07-25 17:33:00,96.0,69.0,-100.00,North,2,5.0,9.0,42,0.00,,,0.14,515.000000,,2013-07-25 22:33:00,
2013-07-25 17:43:00,96.0,69.0,-100.00,North,2,5.0,9.0,42,0.00,,,0.14,515.000000,,2013-07-25 22:43:00,
2013-07-25 17:53:00,96.0,69.0,-100.00,North,2,5.0,9.0,42,0.00,,,0.14,515.000000,,2013-07-25 22:53:00,
2013-07-25 18:02:00,96.0,69.0,-100.00,North,2,5.0,9.0,42,0.00,,,0.14,515.000000,,2013-07-25 23:02:00,
2013-07-25 18:22:00,95.0,70.0,-100.00,NNE,33,4.0,8.0,45,0.00,,,0.14,478.000000,,2013-07-25 23:22:00,
2013-07-25 18:32:00,95.0,70.0,-100.00,NNE,33,4.0,8.0,45,0.00,,,0.14,478.000000,,2013-07-25 23:32:00,
2013-07-25 18:43:00,95.0,70.0,-100.00,NNE,33,4.0,8.0,45,0.00,,,0.14,478.000000,,2013-07-25 23:43:00,
2013-07-25 18:52:00,95.0,70.0,-100.00,NNE,33,4.0,8.0,45,0.00,,,0.14,478.000000,,2013-07-25 23:52:00,
2013-07-25 19:02:00,95.0,70.0,-100.00,NNE,33,4.0,8.0,45,0.00,,,0.14,478.000000,,2013-07-26 00:02:00,
2013-07-25 19:22:00,93.0,70.0,-100.00,ESE,107,3.0,9.0,48,0.00,,,0.14,305.000000,,2013-07-26 00:22:00,
2013-07-25 19:33:00,93.0,70.0,-100.00,ESE,107,3.0,9.0,48,0.00,,,0.14,305.000000,,2013-07-26 00:33:00,
2013-07-25 19:43:00,93.0,70.0,-100.00,ESE,107,3.0,9.0,48,0.00,,,0.14,305.000000,,2013-07-26 00:43:00,
2013-07-25 19:52:00,93.0,70.0,-100.00,ESE,107,3.0,9.0,48,0.00,,,0.14,305.000000,,2013-07-26 00:52:00,
2013-07-25 20:02:00,93.0,70.0,-100.00,ESE,107,3.0,9.0,48,0.00,,,0.14,305.000000,,2013-07-26 01:02:00,
2013-07-25 20:22:00,89.0,73.0,-100.00,ESE,119,3.0,7.0,60,0.00,,,0.00,72.000000,,2013-07-26 01:22:00,
2013-07-25 20:33:00,89.0,73.0,-100.00,ESE,119,3.0,7.0,60,0.00,,,0.00,72.000000,,2013-07-26 01:33:00,
2013-07-25 20:43:00,89.0,73.0,-100.00,ESE,119,3.0,7.0,60,0.00,,,0.00,72.000000,,2013-07-26 01:43:00,
2013-07-25 20:52:00,89.0,73.0,-100.00,ESE,119,3.0,7.0,60,0.00,,,0.00,72.000000,,2013-07-26 01:52:00,
2013-07-25 21:02:00,89.0,73.0,-100.00,ESE,119,3.0,7.0,60,0.00,,,0.00,72.000000,,2013-07-26 02:02:00,
2013-07-25 22:22:00,84.0,73.0,-100.00,SE,133,3.0,5.0,70,-99.99,,,0.00,0.000000,,2013-07-26 03:22:00,
2013-07-25 22:33:00,84.0,73.0,-100.00,SE,133,3.0,5.0,70,-99.99,,,0.00,0.000000,,2013-07-26 03:33:00,
2013-07-25 22:44:00,84.0,73.0,-100.00,SE,133,3.0,5.0,70,-99.99,,,0.00,0.000000,,2013-07-26 03:44:00,
2013-07-25 22:53:00,84.0,73.0,-100.00,SE,133,3.0,5.0,70,-99.99,,,0.00,0.000000,,2013-07-26 03:53:00,
2013-07-25 23:02:00,84.0,73.0,-100.00,SE,133,3.0,5.0,70,-99.99,,,0.00,0.000000,,2013-07-26 04:02:00,
2013-07-25 23:23:00,81.0,72.0,-100.00,ESE,113,1.0,4.0,73,0.00,,,0.00,0.000000,,2013-07-26 04:23:00,
2013-07-25 23:32:00,81.0,72.0,-100.00,ESE,113,1.0,4.0,73,0.00,,,0.00,0.000000,,2013-07-26 04:32:00,
2013-07-25 23:43:00,81.0,72.0,-100.00,ESE,113,1.0,4.0,73,0.00,,,0.00,0.000000,,2013-07-26 04:43:00,
2013-07-25 23:53:00,81.0,72.0,-100.00,ESE,113,1.0,4.0,73,0.00,,,0.00,0.000000,,2013-07-26 04:53:00,